createdAt,value
2022-12-04T00:01:10.274Z,21.08
2022-12-04T00:03:37.548Z,21.13
2022-12-04T00:06:14.657Z,21.63
2022-12-04T00:08:42.733Z,20.48
2022-12-04T00:11:10.702Z,21.83
2022-12-04T00:13:38.571Z,20.52
2022-12-04T00:16:07.359Z,22.13
2022-12-04T00:18:34.685Z,21.77
2022-12-04T00:21:04.712Z,20.15
2022-12-04T00:23:31.774Z,22.45
2022-12-04T00:26:09.236Z,20.67
2022-12-04T00:28:36.152Z,20.20
2022-12-04T00:31:10.858Z,22.05
2022-12-04T00:33:37.563Z,21.02
2022-12-04T00:36:07.584Z,19.80
2022-12-04T00:38:35.096Z,20.98
2022-12-04T00:41:01.888Z,20.83
2022-12-04T00:43:29.174Z,18.92
2022-12-04T00:45:56.110Z,19.65
2022-12-04T00:48:23.018Z,20.05
2022-12-04T00:50:49.792Z,21.02
2022-12-04T00:53:16.373Z,19.60
2022-12-04T00:55:43.713Z,19.40
2022-12-04T00:58:10.908Z,19.80
2022-12-04T01:00:39.893Z,18.65
2022-12-04T01:03:07.121Z,19.48
2022-12-04T01:05:42.303Z,20.13
2022-12-04T01:08:09.826Z,18.58
2022-12-04T01:10:39.134Z,19.33
2022-12-04T01:13:05.862Z,20.17
2022-12-04T01:15:32.573Z,19.60
2022-12-04T01:17:59.103Z,17.80
2022-12-04T01:20:25.730Z,20.83
2022-12-04T01:22:52.211Z,20.90
2022-12-04T01:25:18.795Z,20.10
2022-12-04T01:27:47.487Z,19.77
2022-12-04T01:30:14.116Z,20.08
2022-12-04T01:32:40.646Z,19.50
2022-12-04T01:35:07.989Z,19.88
2022-12-04T01:37:34.572Z,19.15
2022-12-04T01:40:01.109Z,19.27
2022-12-04T01:42:27.667Z,19.10
2022-12-04T01:45:31.296Z,19.75
2022-12-04T01:48:10.857Z,19.25
2022-12-04T01:50:37.529Z,18.50
2022-12-04T01:53:04.052Z,19.55
2022-12-04T01:55:31.169Z,19.13
2022-12-04T01:57:59.342Z,20.35
2022-12-04T02:00:25.853Z,19.50
2022-12-04T02:02:52.936Z,20.40
2022-12-04T02:05:21.322Z,20.23
2022-12-04T02:07:51.356Z,20.00
2022-12-04T02:10:18.811Z,20.55
2022-12-04T02:12:58.182Z,20.23
2022-12-04T02:15:53.049Z,19.48
2022-12-04T02:18:30.877Z,18.33
2022-12-04T02:21:03.444Z,18.58
2022-12-04T02:23:43.257Z,19.27
2022-12-04T02:26:15.613Z,19.77
2022-12-04T02:28:50.022Z,18.85
2022-12-04T02:31:24.002Z,19.23
2022-12-04T02:33:59.843Z,19.30
2022-12-04T02:36:30.172Z,18.63
2022-12-04T02:39:19.804Z,20.48
2022-12-04T02:41:56.520Z,19.42
2022-12-04T02:44:28.158Z,17.98
2022-12-04T02:46:58.347Z,18.33
2022-12-04T02:49:33.460Z,20.38
2022-12-04T02:52:00.601Z,20.75
2022-12-04T02:54:33.438Z,21.45
2022-12-04T02:57:02.157Z,19.20
2022-12-04T02:59:40.837Z,21.30
2022-12-04T03:02:25.612Z,21.13
2022-12-04T03:04:53.574Z,20.25
2022-12-04T03:07:46.442Z,21.05
2022-12-04T03:10:34.621Z,21.02
2022-12-04T03:13:24.382Z,20.38
2022-12-04T03:15:54.695Z,21.77
2022-12-04T03:18:26.920Z,22.70
2022-12-04T03:20:59.041Z,22.33
2022-12-04T03:23:32.850Z,21.70
2022-12-04T03:26:02.794Z,22.15
2022-12-04T03:28:34.768Z,21.85
2022-12-04T03:31:04.680Z,23.73
2022-12-04T03:33:38.698Z,23.02
2022-12-04T03:36:16.765Z,21.90
2022-12-04T03:39:33.112Z,22.58
2022-12-04T03:42:01.326Z,23.20
2022-12-04T03:44:34.011Z,22.73
2022-12-04T03:47:06.705Z,25.33
2022-12-04T03:49:41.899Z,23.73
2022-12-04T03:52:22.476Z,24.15
2022-12-04T03:57:20.649Z,22.80
2022-12-04T04:02:25.307Z,26.00
2022-12-04T04:04:55.958Z,22.42
2022-12-04T04:10:14.566Z,22.00
2022-12-04T04:13:04.364Z,21.83
2022-12-04T04:15:56.168Z,23.38
2022-12-04T04:18:23.047Z,24.15
2022-12-04T04:20:57.374Z,23.83
2022-12-04T04:23:25.870Z,24.00
2022-12-04T04:25:53.081Z,22.05
2022-12-04T04:28:31.102Z,24.83
2022-12-04T04:31:05.793Z,23.33
2022-12-04T04:33:36.564Z,23.95
2022-12-04T04:36:49.387Z,23.38
2022-12-04T04:39:33.928Z,23.58
2022-12-04T04:42:13.775Z,22.85
2022-12-04T04:44:47.332Z,23.77
2022-12-04T04:47:20.248Z,23.15
2022-12-04T04:49:49.072Z,22.45
2022-12-04T04:52:17.688Z,22.77
2022-12-04T04:54:44.775Z,23.02
2022-12-04T04:57:11.311Z,22.20
2022-12-04T04:59:38.178Z,21.65
2022-12-04T05:02:04.837Z,22.27
2022-12-04T05:04:31.382Z,22.38
2022-12-04T05:06:57.888Z,21.00
2022-12-04T05:09:24.468Z,21.33
2022-12-04T05:11:51.005Z,22.42
2022-12-04T05:14:17.483Z,22.10
2022-12-04T05:16:44.030Z,20.98
2022-12-04T05:19:10.535Z,22.65
2022-12-04T05:21:37.025Z,24.02
2022-12-04T05:24:03.570Z,21.88
2022-12-04T05:26:30.070Z,21.55
2022-12-04T05:28:56.564Z,22.00
2022-12-04T05:31:23.174Z,21.55
2022-12-04T05:33:49.706Z,22.35
2022-12-04T05:36:18.957Z,22.55
2022-12-04T05:38:45.574Z,20.90
2022-12-04T05:41:12.080Z,22.27
2022-12-04T05:43:38.569Z,22.33
2022-12-04T05:46:07.694Z,22.77
2022-12-04T05:48:35.377Z,23.42
2022-12-04T05:51:09.713Z,23.02
2022-12-04T05:53:37.587Z,23.10
2022-12-04T05:56:05.859Z,23.25
2022-12-04T05:58:35.522Z,22.77
2022-12-04T06:01:10.574Z,22.45
2022-12-04T06:03:37.351Z,22.63
2022-12-04T06:06:04.159Z,22.27
2022-12-04T06:08:31.989Z,21.27
2022-12-04T06:11:01.558Z,22.65
2022-12-04T06:13:28.145Z,23.67
2022-12-04T06:15:54.801Z,23.48
2022-12-04T06:18:21.501Z,23.50
2022-12-04T06:20:48.351Z,22.08
2022-12-04T06:23:14.921Z,26.30
2022-12-04T06:25:41.517Z,23.05
2022-12-04T06:28:08.464Z,23.60
2022-12-04T06:30:35.354Z,23.60
2022-12-04T06:33:01.920Z,23.58
2022-12-04T06:35:28.489Z,24.30
2022-12-04T06:37:54.997Z,23.05
2022-12-04T06:40:22.177Z,22.75
2022-12-04T06:42:48.817Z,23.33
2022-12-04T06:45:15.717Z,25.23
2022-12-04T06:47:42.315Z,22.70
2022-12-04T06:50:09.074Z,24.17
2022-12-04T06:52:35.725Z,28.10
2022-12-04T06:55:02.260Z,23.55
2022-12-04T06:57:28.745Z,23.25
2022-12-04T06:59:55.611Z,23.17
2022-12-04T07:02:22.329Z,23.30
2022-12-04T07:04:53.914Z,24.20
2022-12-04T07:07:20.473Z,23.02
2022-12-04T07:09:47.021Z,24.83
2022-12-04T07:12:13.522Z,24.83
2022-12-04T07:14:40.028Z,25.73
2022-12-04T07:17:06.591Z,24.00
2022-12-04T07:19:33.259Z,25.17
2022-12-04T07:21:59.721Z,25.33
2022-12-04T07:24:26.199Z,24.63
2022-12-04T07:26:52.765Z,25.55
2022-12-04T07:29:19.234Z,25.33
2022-12-04T07:31:45.760Z,25.88
2022-12-04T07:34:12.950Z,26.38
2022-12-04T07:36:39.794Z,26.45
2022-12-04T07:39:06.290Z,27.15
2022-12-04T07:41:32.792Z,27.27
2022-12-04T07:44:00.440Z,27.30
2022-12-04T07:46:28.177Z,25.98
2022-12-04T07:48:55.958Z,26.83
2022-12-04T07:51:25.404Z,26.98
2022-12-04T07:53:52.265Z,24.55
2022-12-04T07:56:19.272Z,26.38
2022-12-04T07:58:46.497Z,25.23
2022-12-04T08:01:19.113Z,27.17
2022-12-04T08:03:48.791Z,26.02
2022-12-04T08:06:17.985Z,26.15
2022-12-04T08:08:44.682Z,25.17
2022-12-04T08:11:15.236Z,24.95
2022-12-04T08:13:41.814Z,24.30
2022-12-04T08:16:10.191Z,25.95
2022-12-04T08:18:36.914Z,25.48
2022-12-04T08:21:08.971Z,24.98
2022-12-04T08:23:36.469Z,24.17
2022-12-04T08:26:03.879Z,24.52
2022-12-04T08:28:30.817Z,22.95
2022-12-04T08:31:03.685Z,23.52
2022-12-04T08:33:30.301Z,24.80
2022-12-04T08:35:57.060Z,23.77
2022-12-04T08:38:23.570Z,24.23
2022-12-04T08:40:50.066Z,23.55
2022-12-04T08:43:16.561Z,22.70
2022-12-04T08:45:43.162Z,22.38
2022-12-04T08:48:09.761Z,22.73
2022-12-04T08:50:36.225Z,22.17
2022-12-04T08:53:02.781Z,21.02
2022-12-04T08:55:32.767Z,21.65
2022-12-04T08:57:59.529Z,23.15
2022-12-04T09:00:26.392Z,22.63
2022-12-04T09:02:52.976Z,22.73
2022-12-04T09:05:19.775Z,21.50
2022-12-04T09:07:46.379Z,22.40
2022-12-04T09:10:13.026Z,24.48
2022-12-04T09:12:39.617Z,23.35
2022-12-04T09:15:06.860Z,23.95
2022-12-04T09:17:35.208Z,22.83
2022-12-04T09:20:03.001Z,23.90
2022-12-04T09:22:45.627Z,24.45
2022-12-04T09:25:19.695Z,23.20
2022-12-04T09:27:46.169Z,23.23
2022-12-04T09:30:14.150Z,23.85
2022-12-04T09:32:40.978Z,24.48
2022-12-04T09:35:07.856Z,23.80
2022-12-04T09:37:34.917Z,25.27
2022-12-04T09:40:01.396Z,23.75
2022-12-04T09:42:46.702Z,23.33
2022-12-04T09:45:19.029Z,23.88
2022-12-04T09:47:48.769Z,22.45
2022-12-04T09:50:20.145Z,23.02
2022-12-04T09:52:59.973Z,22.98
2022-12-04T09:55:47.783Z,21.42
2022-12-04T09:58:20.166Z,22.80
2022-12-04T10:00:51.957Z,23.52
2022-12-04T10:03:21.759Z,22.98
2022-12-04T10:06:12.747Z,21.88
2022-12-04T10:08:42.657Z,21.75
2022-12-04T10:11:32.849Z,23.02
2022-12-04T10:16:57.968Z,23.48
2022-12-04T10:19:33.727Z,20.38
2022-12-04T10:22:23.259Z,20.15
2022-12-04T10:24:54.345Z,19.80
2022-12-04T10:27:28.242Z,20.75
2022-12-04T10:30:16.472Z,21.67
2022-12-04T10:32:48.400Z,21.65
2022-12-04T10:35:22.395Z,20.38
2022-12-04T10:37:59.396Z,21.13
2022-12-04T10:40:30.318Z,21.15
2022-12-04T10:43:06.238Z,20.92
2022-12-04T10:45:35.726Z,20.60
2022-12-04T10:48:02.479Z,21.65
2022-12-04T10:50:29.021Z,21.25
2022-12-04T10:52:56.881Z,20.42
2022-12-04T10:55:37.161Z,20.80
2022-12-04T11:00:35.419Z,20.58
2022-12-04T11:03:19.910Z,20.20
2022-12-04T11:05:54.906Z,21.13
2022-12-04T11:08:26.459Z,20.08
2022-12-04T11:11:01.579Z,20.83
2022-12-04T11:13:28.441Z,20.17
2022-12-04T11:15:56.756Z,19.13
2022-12-04T11:18:27.623Z,20.17
2022-12-04T11:21:07.978Z,20.45
2022-12-04T11:26:05.900Z,21.55
2022-12-04T11:28:42.122Z,22.73
2022-12-04T11:31:11.380Z,22.17
2022-12-04T11:34:01.594Z,20.92
2022-12-04T11:36:31.362Z,22.25
2022-12-04T11:39:20.659Z,20.67
2022-12-04T11:41:47.427Z,20.48
2022-12-04T11:44:35.281Z,21.67
2022-12-04T11:47:17.513Z,21.88
2022-12-04T11:49:44.122Z,21.02
2022-12-04T11:52:25.121Z,21.17
2022-12-04T11:55:08.073Z,22.30
2022-12-04T11:57:50.028Z,20.60
2022-12-04T12:00:21.312Z,21.23
2022-12-04T12:03:10.431Z,21.08
2022-12-04T12:05:42.840Z,21.88
2022-12-04T12:08:48.109Z,20.20
2022-12-04T12:11:18.710Z,20.23
2022-12-04T12:14:13.493Z,21.10
2022-12-04T12:17:08.942Z,21.48
2022-12-04T12:20:08.295Z,22.85
2022-12-04T12:23:10.413Z,19.40
2022-12-04T12:26:04.640Z,20.77
2022-12-04T12:28:37.415Z,21.33
2022-12-04T12:31:22.768Z,23.08
2022-12-04T12:33:56.163Z,22.80
2022-12-04T12:36:26.793Z,22.85
2022-12-04T12:39:05.687Z,21.92
2022-12-04T12:41:37.483Z,20.80
2022-12-04T12:44:05.786Z,26.35
2022-12-04T12:46:59.124Z,21.73
2022-12-04T12:49:47.867Z,20.15
2022-12-04T12:52:21.553Z,23.83
2022-12-04T12:54:48.908Z,23.95
2022-12-04T12:57:25.547Z,23.52
2022-12-04T13:00:06.721Z,21.77
2022-12-04T13:02:43.430Z,19.25
2022-12-04T13:05:12.760Z,21.45
2022-12-04T13:07:47.518Z,20.63
2022-12-04T13:10:21.736Z,20.85
2022-12-04T13:12:53.064Z,20.60
2022-12-04T13:15:22.696Z,21.55
2022-12-04T13:17:50.875Z,19.75
2022-12-04T13:20:25.357Z,20.13
2022-12-04T13:23:11.487Z,19.17
2022-12-04T13:25:59.296Z,19.25
2022-12-04T13:28:54.618Z,20.58
2022-12-04T13:31:34.073Z,18.90
2022-12-04T13:34:57.465Z,18.10
2022-12-04T13:37:23.931Z,18.90
2022-12-04T13:40:14.993Z,21.33
2022-12-04T13:42:41.922Z,19.15
2022-12-04T13:45:26.097Z,20.08
2022-12-04T13:48:00.717Z,20.33
2022-12-04T13:50:32.972Z,20.33
2022-12-04T13:52:59.497Z,21.88
2022-12-04T13:55:33.106Z,20.85
2022-12-04T13:58:32.799Z,20.52
2022-12-04T14:01:23.822Z,20.77
2022-12-04T14:03:51.813Z,20.75
2022-12-04T14:06:26.647Z,20.40
2022-12-04T14:09:00.733Z,21.38
2022-12-04T14:11:28.582Z,21.30
2022-12-04T14:13:56.929Z,20.02
2022-12-04T14:16:24.799Z,20.33
2022-12-04T14:19:01.812Z,22.85
2022-12-04T14:21:45.696Z,21.50
2022-12-04T14:24:38.830Z,20.30
2022-12-04T14:27:32.271Z,23.23
2022-12-04T14:29:59.094Z,22.08
2022-12-04T14:32:27.933Z,20.58
2022-12-04T14:34:55.159Z,21.40
2022-12-04T14:37:27.111Z,20.45
2022-12-04T14:39:56.624Z,21.27
2022-12-04T14:42:26.574Z,20.63
2022-12-04T14:45:00.239Z,19.80
2022-12-04T14:47:35.641Z,21.65
2022-12-04T14:50:23.285Z,20.20
2022-12-04T14:53:23.504Z,20.67
2022-12-04T14:56:16.064Z,19.92
2022-12-04T14:58:42.983Z,20.77
2022-12-04T15:01:29.364Z,20.13
2022-12-04T15:03:58.832Z,21.33
2022-12-04T15:06:30.519Z,20.25
2022-12-04T15:09:02.869Z,21.70
2022-12-04T15:11:29.351Z,20.05
2022-12-04T15:14:04.948Z,20.27
2022-12-04T15:16:32.317Z,20.92
2022-12-04T15:18:59.961Z,20.55
2022-12-04T15:21:40.190Z,21.83
2022-12-04T15:24:18.196Z,20.88
2022-12-04T15:26:44.931Z,22.15
2022-12-04T15:29:18.617Z,23.05
2022-12-04T15:31:48.143Z,21.98
2022-12-04T15:34:17.277Z,21.52
2022-12-04T15:36:49.509Z,22.70
2022-12-04T15:39:19.795Z,20.92
2022-12-04T15:41:46.377Z,21.63
2022-12-04T15:44:27.776Z,20.92
2022-12-04T15:46:55.919Z,21.80
2022-12-04T15:49:29.874Z,21.00
2022-12-04T15:52:27.794Z,22.80
2022-12-04T15:55:02.630Z,21.90
2022-12-04T15:57:42.700Z,21.95
2022-12-04T16:00:21.303Z,21.83
2022-12-04T16:02:48.301Z,30.75
2022-12-04T16:05:31.839Z,24.58
2022-12-04T16:08:00.577Z,23.00
2022-12-04T16:10:30.009Z,22.00
2022-12-04T16:12:59.375Z,22.45
2022-12-04T16:15:31.932Z,22.15
2022-12-04T16:17:58.654Z,23.73
2022-12-04T16:20:27.824Z,22.13
2022-12-04T16:22:54.769Z,22.65
2022-12-04T16:25:21.354Z,22.73
2022-12-04T16:27:47.834Z,25.92
2022-12-04T16:30:14.671Z,22.10
2022-12-04T16:32:41.372Z,22.98
2022-12-04T16:35:13.721Z,24.80
2022-12-04T16:37:40.227Z,26.17
2022-12-04T16:40:07.308Z,22.65
2022-12-04T16:42:33.869Z,24.20
2022-12-04T16:45:00.545Z,23.50
2022-12-04T16:47:27.235Z,22.75
2022-12-04T16:49:53.772Z,24.00
2022-12-04T16:52:20.598Z,23.27
2022-12-04T16:54:47.305Z,24.98
2022-12-04T16:57:13.830Z,22.60
2022-12-04T16:59:40.350Z,22.25
2022-12-04T17:02:16.025Z,22.95
2022-12-04T17:04:42.840Z,21.83
2022-12-04T17:07:10.133Z,22.77
2022-12-04T17:09:36.970Z,24.25
2022-12-04T17:12:03.624Z,23.27
2022-12-04T17:14:30.245Z,24.20
2022-12-04T17:16:56.747Z,23.83
2022-12-04T17:19:27.520Z,24.05
2022-12-04T17:21:54.003Z,24.15
2022-12-04T17:24:20.633Z,22.63
2022-12-04T17:26:47.993Z,22.05
2022-12-04T17:29:14.557Z,22.58
2022-12-04T17:31:41.119Z,22.92
2022-12-04T17:34:09.954Z,25.73
2022-12-04T17:36:36.502Z,24.80
2022-12-04T17:39:03.587Z,24.20
2022-12-04T17:41:30.153Z,22.98
2022-12-04T17:43:59.589Z,25.30
2022-12-04T17:46:26.222Z,22.25
2022-12-04T17:48:55.709Z,23.13
2022-12-04T17:51:24.978Z,21.63
2022-12-04T17:53:52.153Z,21.67
2022-12-04T17:56:21.461Z,21.73
2022-12-04T17:58:48.677Z,23.25
2022-12-04T18:01:17.861Z,22.27
2022-12-04T18:03:49.673Z,23.35
2022-12-04T18:06:17.662Z,23.50
2022-12-04T18:08:49.751Z,23.70
2022-12-04T18:11:17.799Z,25.52
2022-12-04T18:13:44.340Z,24.27
2022-12-04T18:16:11.276Z,24.02
2022-12-04T18:18:38.229Z,24.15
2022-12-04T18:21:11.026Z,23.88
2022-12-04T18:23:38.610Z,23.38
2022-12-04T18:26:05.102Z,26.45
2022-12-04T18:28:31.902Z,26.13
2022-12-04T18:31:06.202Z,26.35
2022-12-04T18:33:34.114Z,26.23
2022-12-04T18:36:01.021Z,26.17
2022-12-04T18:38:31.953Z,26.00
2022-12-04T18:41:06.689Z,25.08
2022-12-04T18:43:34.610Z,24.88
2022-12-04T18:46:07.311Z,25.65
2022-12-04T18:48:35.053Z,24.50
2022-12-04T18:51:02.489Z,24.45
2022-12-04T18:53:30.458Z,25.42
2022-12-04T18:56:01.975Z,25.70
2022-12-04T18:58:28.533Z,25.10
2022-12-04T19:00:55.155Z,24.90
2022-12-04T19:03:21.665Z,25.05
2022-12-04T19:05:51.502Z,27.27
2022-12-04T19:08:18.102Z,27.52
2022-12-04T19:10:44.705Z,24.92
2022-12-04T19:13:11.205Z,27.02
2022-12-04T19:15:44.537Z,29.80
2022-12-04T19:18:11.634Z,29.30
2022-12-04T19:20:42.724Z,31.25
2022-12-04T19:23:09.296Z,28.55
2022-12-04T19:25:35.820Z,28.98
2022-12-04T19:28:03.524Z,26.80
2022-12-04T19:30:30.162Z,29.55
2022-12-04T19:32:57.006Z,27.50
2022-12-04T19:35:23.601Z,26.77
2022-12-04T19:37:56.301Z,26.15
2022-12-04T19:40:22.862Z,24.05
2022-12-04T19:42:49.397Z,26.92
2022-12-04T19:45:15.949Z,28.50
2022-12-04T19:47:42.426Z,37.30
2022-12-04T19:50:09.353Z,34.22
2022-12-04T19:52:35.883Z,26.50
2022-12-04T19:55:02.533Z,24.67
2022-12-04T19:57:29.073Z,23.73
2022-12-04T19:59:55.657Z,26.02
2022-12-04T20:02:22.196Z,25.98
2022-12-04T20:04:48.876Z,27.20
2022-12-04T20:07:15.377Z,25.10
2022-12-04T20:09:44.913Z,24.15
2022-12-04T20:12:14.019Z,23.58
2022-12-04T20:14:40.560Z,29.15
2022-12-04T20:17:07.266Z,25.17
2022-12-04T20:19:33.876Z,25.25
2022-12-04T20:22:03.185Z,24.08
2022-12-04T20:24:29.700Z,31.58
2022-12-04T20:26:56.927Z,30.13
2022-12-04T20:29:23.520Z,27.63
2022-12-04T20:31:50.377Z,29.30
2022-12-04T20:34:18.679Z,30.60
2022-12-04T20:36:47.267Z,31.17
2022-12-04T20:39:15.009Z,35.67
2022-12-04T20:41:41.625Z,35.00
2022-12-04T20:44:10.767Z,30.38
2022-12-04T20:46:41.024Z,28.55
2022-12-04T20:49:13.455Z,30.30
2022-12-04T20:51:44.452Z,29.83
2022-12-04T20:54:15.522Z,28.17
2022-12-04T20:56:42.149Z,25.48
2022-12-04T20:59:12.148Z,26.05
2022-12-04T21:01:40.276Z,25.25
2022-12-04T21:04:06.992Z,25.65
2022-12-04T21:06:38.598Z,27.25
2022-12-04T21:09:12.158Z,27.75
2022-12-04T21:11:43.993Z,26.55
2022-12-04T21:14:13.953Z,27.60
2022-12-04T21:16:40.757Z,30.60
2022-12-04T21:19:08.713Z,31.10
2022-12-04T21:21:35.856Z,32.83
2022-12-04T21:24:03.369Z,29.77
2022-12-04T21:26:30.041Z,31.00
2022-12-04T21:28:57.590Z,30.02
2022-12-04T21:31:24.817Z,27.23
2022-12-04T21:33:51.378Z,23.85
2022-12-04T21:36:18.109Z,21.63
2022-12-04T21:38:44.734Z,18.15
2022-12-04T21:41:11.802Z,19.52
2022-12-04T21:43:38.358Z,15.93
2022-12-04T21:46:13.821Z,10.82
2022-12-04T21:48:40.823Z,11.18
2022-12-04T21:51:16.881Z,11.98
2022-12-04T21:53:54.179Z,11.85
2022-12-04T21:56:21.733Z,11.18
2022-12-04T21:58:48.319Z,8.45
2022-12-04T22:01:16.299Z,8.25
2022-12-04T22:03:43.533Z,7.20
2022-12-04T22:06:10.584Z,9.02
2022-12-04T22:08:39.323Z,8.80
2022-12-04T22:11:10.764Z,9.93
2022-12-04T22:13:37.908Z,8.80
2022-12-04T22:16:07.403Z,6.57
2022-12-04T22:18:34.706Z,7.68
2022-12-04T22:21:04.767Z,7.72
2022-12-04T22:23:32.841Z,6.90
2022-12-04T22:26:15.061Z,7.53
2022-12-04T22:28:42.606Z,13.25
2022-12-04T22:31:12.945Z,9.15
2022-12-04T22:36:16.670Z,9.95
2022-12-04T22:39:05.982Z,8.45
2022-12-04T22:41:31.459Z,8.82
2022-12-04T22:43:58.739Z,9.65
2022-12-04T22:46:25.814Z,8.98
2022-12-04T22:48:52.458Z,8.57
2022-12-04T22:51:21.937Z,8.98
2022-12-04T22:53:50.980Z,8.63
2022-12-04T22:56:24.033Z,11.13
2022-12-04T22:58:51.663Z,10.13
2022-12-04T23:01:23.998Z,10.07
2022-12-04T23:03:51.562Z,8.90
2022-12-04T23:06:21.020Z,9.23
2022-12-04T23:08:47.766Z,9.38
2022-12-04T23:11:19.640Z,8.52
2022-12-04T23:13:57.508Z,9.15
2022-12-04T23:16:24.709Z,9.95
2022-12-04T23:18:51.606Z,9.52
2022-12-04T23:21:19.909Z,10.93
2022-12-04T23:23:47.546Z,10.23
2022-12-04T23:26:16.705Z,9.40
2022-12-04T23:28:43.530Z,10.00
2022-12-04T23:31:10.304Z,9.45
2022-12-04T23:33:37.838Z,9.68
2022-12-04T23:36:05.389Z,9.65
2022-12-04T23:38:32.030Z,9.55
2022-12-04T23:41:05.991Z,9.50
2022-12-04T23:43:33.223Z,8.93
2022-12-04T23:45:59.710Z,9.93
2022-12-04T23:48:26.721Z,9.77
2022-12-04T23:50:53.561Z,9.10
2022-12-04T23:53:28.577Z,10.73
2022-12-04T23:56:07.053Z,9.95
2022-12-04T23:58:35.819Z,10.32
